OEGT

Details ICAO OEGT (URY)
Name GURIAT
Region Saudi Arabia
Timezone Asia/Riyadh (UTC+3.0)
Plans Departing 2
Arriving 7
Stats Elevation 1,672 ft / 510 m (AMSL)
Location 31.411941° 37.279469°
Runways 1
Magnetic Variation 4.615° E
Sunrise 2017-12-17 04:25:05 UTC / 2017-12-17 07:25:05 Local
Sunset 2017-12-17 14:31:33 UTC / 2017-12-17 17:31:33 Local
Advertisement - Login to hide

Runways

ID Width Length Bearing (true) Bearing (mag) Surface Threshold Offset Overrun Length
10 147 ft / 45 m 9,994 ft / 3,046 m 106.27° 101.65° Asphalt 0 ft / 0 m 390 ft / 119 m
28 147 ft / 45 m 9,994 ft / 3,046 m 286.28° 281.66° Asphalt 0 ft / 0 m 390 ft / 119 m

Map

Weather


0- 5 10 15 20 25 30 35+ Temperature / ° C

Clouds and Precipitation
Forecast for 2017-12-17 12:00 UTC. Updated an hour ago

Ground ~20,000 ft ~40,000 ft Winds

METAR

OEGT 170900Z 09008KT CAVOK 14/02 Q1023

TAF

TAF OEGT 162300Z 1700/1806 VRB03KT 7000 FEW040 SCT100 BECMG 1706/1708 15012KT

Frequencies

Unicom 122.80 MHz CTAF
Warning: Do not use this data for real-world aviation or navigation. No guarantee of current accuracy is given.